< < Back
Terminal Aerodrome Forecast


Current Version              Previous Versions:   1  2  3  4  5  6  7  8  9  

Terminal Aerodrome Forecast

881
FTUS42 KGSP 200521
TAFHKY
TAF
KHKY 200521Z 2006/2106 22006KT P6SM FEW210
     FM201400 25010G19KT P6SM FEW040 SCT250
     FM210100 28006KT P6SM FEW040 SCT250=

Latest METAR

166
SAUS70 KWBC 210400 RRB
MTRHKY
METAR KHKY 210353Z AUTO 31009KT 10SM CLR 08/M08 A3014 RMK AO2 SLP195
T00831078


USA.gov is the U.S. government's official web portal to all federal, state and local government web resources and services.